Terminal Aerodrome Forecast
Issued by NWS Greer, SC

Home | Current Version | Previous Version | Text Only | Print | Product List | Glossary On
Versions: 1 2 3 4 5 6 7 8 9 10 11 12 13 14 15 16 17 18 19 20 21 22 23 24 25 26 27 28 29 30 31 32 33 34
000
FTUS42 KGSP 301126
TAFAVL
TAF
KAVL 301126Z 3012/3112 34016G27KT P6SM FEW022 BKN035
      TEMPO 3012/3014 OVC022
     FM301600 34017G30KT P6SM SCT035
     FM302300 34012KT P6SM FEW040
     FM310300 32007KT P6SM FEW250=

USA.gov is the U.S. government's official web portal to all federal, state and local government web resources and services.